Daikoku — JD3247 — position and weather

sailwx.info

Track history (hours):
 
Tides and Currents Weather Stations Pressure Air Temp Water Temp Dewpoint Dewpoint Depression Visibility Wind Speed Wind Dir Waves Ship Positions

Daikoku

Last reported at 2014-Nov-22 03:33 UTC. Time now 2014-Nov-22 11:40 UTC.
Position N 35°09' E 139°44'.

Length 95 m; draft 3.8 m.

Type: Cargo ship. MMSI: 431003009.

Date/timePositionNaut miles runAvg speedWind from/ knotsBaromVisibWave heightAir tempDewpointWater temp
2014-Nov-22 03:33N 35°09' E 139°44'1111.6
2014-Nov-22 02:33N 35°21' E 139°42'3 3.4
2014-Nov-22 01:32N 35°24' E 139°41'7 7.3
2014-Nov-22 00:33N 35°28' E 139°48'7 4.9
2014-Nov-21 23:11N 35°35' E 139°48'4 0.6
2014-Nov-21 16:25N 35°33' E 139°53'0 0.0
2014-Nov-21 14:28N 35°34' E 139°53'0 0.0
2014-Nov-21 13:07N 35°33' E 139°53'3 6.1
2014-Nov-21 12:33N 35°34' E 139°48'1 0.5
2014-Nov-21 10:23N 35°35' E 139°48'8 2.8
2014-Nov-21 07:34N 35°27' E 139°46'3 3.1
2014-Nov-21 06:28N 35°27' E 139°41'3 3.0
2014-Nov-21 05:33N 35°28' E 139°45'1 1.4
2014-Nov-21 04:33N 35°29' E 139°45'0 0.0
2014-Nov-21 03:30N 35°29' E 139°45'0 0.0
2014-Nov-21 02:33N 35°29' E 139°45'0 0.0
2014-Nov-21 01:30N 35°29' E 139°45'5 5.0
2014-Nov-21 00:33N 35°25' E 139°46'10 9.8
2014-Nov-20 23:33N 35°15' E 139°47'9 0.2
2014-Nov-19 10:15N 35°07' E 139°41'912.3
2014-Nov-19 09:33N 35°15' E 139°46'1211.7
2014-Nov-19 08:33N 35°26' E 139°46'8 2.5
2014-Nov-19 05:27N 35°34' E 139°50'8 9.0
2014-Nov-19 04:33N 35°27' E 139°44'1 0.8
2014-Nov-19 03:33N 35°26' E 139°44'10 9.6
2014-Nov-19 02:33N 35°17' E 139°45'12 0.5
2014-Nov-18 02:33N 35°05' E 139°41'1211.7
2014-Nov-18 01:33N 35°16' E 139°45'9 8.6
2014-Nov-18 00:34N 35°24' E 139°41'0 0.0
2014-Nov-17 23:31N 35°24' E 139°41'3 2.8
2014-Nov-17 22:28N 35°22' E 139°44'0 0.0
2014-Nov-17 21:31N 35°22' E 139°44'0 0.1
2014-Nov-17 20:34N 35°22' E 139°43'1010.4
2014-Nov-17 19:34N 35°12' E 139°47'2 0.1
2014-Nov-16 09:30N 35°11' E 139°45'1212.5
2014-Nov-16 08:34N 35°22' E 139°41'2 1.7
2014-Nov-16 07:29N 35°24' E 139°41'1 0.6
2014-Nov-16 06:33N 35°23' E 139°41'9 8.7
2014-Nov-16 05:34N 35°16' E 139°46'236 9.1
2014-Nov-15 03:31N 34°26' E 135°05'1212.4
2014-Nov-15 02:33N 34°35' E 135°15'6 5.8
2014-Nov-15 01:28N 34°41' E 135°17'0 0.0
2014-Nov-15 00:33N 34°41' E 135°17'0 0.0
2014-Nov-14 23:21N 34°41' E 135°17'0 0.0
2014-Nov-14 22:15N 34°41' E 135°17'0 0.0
2014-Nov-14 21:33N 34°41' E 135°17'0 0.0
2014-Nov-14 20:34N 34°41' E 135°17'0 0.0
2014-Nov-14 19:34N 34°41' E 135°17'0 0.0
2014-Nov-14 18:28N 34°41' E 135°17'0 0.0
2014-Nov-14 17:33N 34°41' E 135°17'0 0.0
2014-Nov-14 16:33N 34°41' E 135°17'0 0.0
2014-Nov-14 15:28N 34°41' E 135°17'0 0.0
2014-Nov-14 14:34N 34°41' E 135°17'0 0.0
2014-Nov-14 12:27N 34°41' E 135°17'0 0.0
2014-Nov-14 11:27N 34°41' E 135°17'0 0.0
2014-Nov-14 10:33N 34°41' E 135°17'0 0.0
2014-Nov-14 09:33N 34°41' E 135°17'0 0.0
2014-Nov-14 08:33N 34°41' E 135°17'1 0.7
2014-Nov-14 07:33N 34°41' E 135°17'0 0.2
2014-Nov-14 06:33N 34°41' E 135°17'4 2.4
2014-Nov-14 05:07N 34°40' E 135°14'0 0.2
2014-Nov-14 04:32N 34°40' E 135°14'0 0.0
2014-Nov-14 03:32N 34°40' E 135°14'3 3.4
2014-Nov-14 02:33N 34°41' E 135°17'0 0.0
2014-Nov-14 01:33N 34°41' E 135°17'3 3.3
2014-Nov-14 00:33N 34°38' E 135°18'1 0.6
2014-Nov-13 23:27N 34°38' E 135°18'0 0.4
2014-Nov-13 22:33N 34°37' E 135°18'1211.7
2014-Nov-13 21:33N 34°28' E 135°09'1211.3
2014-Nov-13 20:29N 34°19' E 135°00'1011.0
2014-Nov-13 19:33N 34°08' E 134°60'240 8.2
2014-Nov-12 14:27N 35°06' E 139°43'1010.5
2014-Nov-12 13:31N 35°16' E 139°46'9 9.6
2014-Nov-12 12:34N 35°24' E 139°41'1 0.8
2014-Nov-12 11:33N 35°23' E 139°41'4 4.1
2014-Nov-12 10:32N 35°27' E 139°41'1 1.4
2014-Nov-12 09:33N 35°27' E 139°43'6 5.7
2014-Nov-12 08:33N 35°29' E 139°50'7 6.6
2014-Nov-12 07:33N 35°35' E 139°47'0 0.4
2014-Nov-12 06:27N 35°35' E 139°48'910.2
2014-Nov-12 05:33N 35°26' E 139°44'2 2.5
2014-Nov-12 04:33N 35°26' E 139°41'1 1.4
2014-Nov-12 03:33N 35°26' E 139°43'  
Track history (hours):
 
Tides and Currents Weather Stations Pressure Air Temp Water Temp Dewpoint Dewpoint Depression Visibility Wind Speed Wind Dir Waves Ship Positions

Daikoku

Last reported at 2014-Nov-22 03:33 UTC. Time now 2014-Nov-22 11:40 UTC.
Position N 35°09' E 139°44'.

Length 95 m; draft 3.8 m.

Type: Cargo ship. MMSI: 431003009.

Date/timePositionNaut miles runAvg speedWind from/ knotsBaromVisibWave heightAir tempDewpointWater temp
2014-Nov-22 03:33N 35°09' E 139°44'1111.6
2014-Nov-22 02:33N 35°21' E 139°42'3 3.4
2014-Nov-22 01:32N 35°24' E 139°41'7 7.3
2014-Nov-22 00:33N 35°28' E 139°48'7 4.9
2014-Nov-21 23:11N 35°35' E 139°48'4 0.6
2014-Nov-21 16:25N 35°33' E 139°53'0 0.0
2014-Nov-21 14:28N 35°34' E 139°53'0 0.0
2014-Nov-21 13:07N 35°33' E 139°53'3 6.1
2014-Nov-21 12:33N 35°34' E 139°48'1 0.5
2014-Nov-21 10:23N 35°35' E 139°48'8 2.8
2014-Nov-21 07:34N 35°27' E 139°46'3 3.1
2014-Nov-21 06:28N 35°27' E 139°41'3 3.0
2014-Nov-21 05:33N 35°28' E 139°45'1 1.4
2014-Nov-21 04:33N 35°29' E 139°45'0 0.0
2014-Nov-21 03:30N 35°29' E 139°45'0 0.0
2014-Nov-21 02:33N 35°29' E 139°45'0 0.0
2014-Nov-21 01:30N 35°29' E 139°45'5 5.0
2014-Nov-21 00:33N 35°25' E 139°46'10 9.8
2014-Nov-20 23:33N 35°15' E 139°47'9 0.2
2014-Nov-19 10:15N 35°07' E 139°41'912.3
2014-Nov-19 09:33N 35°15' E 139°46'1211.7
2014-Nov-19 08:33N 35°26' E 139°46'8 2.5
2014-Nov-19 05:27N 35°34' E 139°50'8 9.0
2014-Nov-19 04:33N 35°27' E 139°44'1 0.8
2014-Nov-19 03:33N 35°26' E 139°44'10 9.6
2014-Nov-19 02:33N 35°17' E 139°45'12 0.5
2014-Nov-18 02:33N 35°05' E 139°41'1211.7
2014-Nov-18 01:33N 35°16' E 139°45'9 8.6
2014-Nov-18 00:34N 35°24' E 139°41'0 0.0
2014-Nov-17 23:31N 35°24' E 139°41'3 2.8
2014-Nov-17 22:28N 35°22' E 139°44'0 0.0
2014-Nov-17 21:31N 35°22' E 139°44'0 0.1
2014-Nov-17 20:34N 35°22' E 139°43'1010.4
2014-Nov-17 19:34N 35°12' E 139°47'2 0.1
2014-Nov-16 09:30N 35°11' E 139°45'1212.5
2014-Nov-16 08:34N 35°22' E 139°41'2 1.7
2014-Nov-16 07:29N 35°24' E 139°41'1 0.6
2014-Nov-16 06:33N 35°23' E 139°41'9 8.7
2014-Nov-16 05:34N 35°16' E 139°46'236 9.1
2014-Nov-15 03:31N 34°26' E 135°05'1212.4
2014-Nov-15 02:33N 34°35' E 135°15'6 5.8
2014-Nov-15 01:28N 34°41' E 135°17'0 0.0
2014-Nov-15 00:33N 34°41' E 135°17'0 0.0
2014-Nov-14 23:21N 34°41' E 135°17'0 0.0
2014-Nov-14 22:15N 34°41' E 135°17'0 0.0
2014-Nov-14 21:33N 34°41' E 135°17'0 0.0
2014-Nov-14 20:34N 34°41' E 135°17'0 0.0
2014-Nov-14 19:34N 34°41' E 135°17'0 0.0
2014-Nov-14 18:28N 34°41' E 135°17'0 0.0
2014-Nov-14 17:33N 34°41' E 135°17'0 0.0
2014-Nov-14 16:33N 34°41' E 135°17'0 0.0
2014-Nov-14 15:28N 34°41' E 135°17'0 0.0
2014-Nov-14 14:34N 34°41' E 135°17'0 0.0
2014-Nov-14 12:27N 34°41' E 135°17'0 0.0
2014-Nov-14 11:27N 34°41' E 135°17'0 0.0
2014-Nov-14 10:33N 34°41' E 135°17'0 0.0
2014-Nov-14 09:33N 34°41' E 135°17'0 0.0
2014-Nov-14 08:33N 34°41' E 135°17'1 0.7
2014-Nov-14 07:33N 34°41' E 135°17'0 0.2
2014-Nov-14 06:33N 34°41' E 135°17'4 2.4
2014-Nov-14 05:07N 34°40' E 135°14'0 0.2
2014-Nov-14 04:32N 34°40' E 135°14'0 0.0
2014-Nov-14 03:32N 34°40' E 135°14'3 3.4
2014-Nov-14 02:33N 34°41' E 135°17'0 0.0
2014-Nov-14 01:33N 34°41' E 135°17'3 3.3
2014-Nov-14 00:33N 34°38' E 135°18'1 0.6
2014-Nov-13 23:27N 34°38' E 135°18'0 0.4
2014-Nov-13 22:33N 34°37' E 135°18'1211.7
2014-Nov-13 21:33N 34°28' E 135°09'1211.3
2014-Nov-13 20:29N 34°19' E 135°00'1011.0
2014-Nov-13 19:33N 34°08' E 134°60'240 8.2
2014-Nov-12 14:27N 35°06' E 139°43'1010.5
2014-Nov-12 13:31N 35°16' E 139°46'9 9.6
2014-Nov-12 12:34N 35°24' E 139°41'1 0.8
2014-Nov-12 11:33N 35°23' E 139°41'4 4.1
2014-Nov-12 10:32N 35°27' E 139°41'1 1.4
2014-Nov-12 09:33N 35°27' E 139°43'6 5.7
2014-Nov-12 08:33N 35°29' E 139°50'7 6.6
2014-Nov-12 07:33N 35°35' E 139°47'0 0.4
2014-Nov-12 06:27N 35°35' E 139°48'910.2
2014-Nov-12 05:33N 35°26' E 139°44'2 2.5
2014-Nov-12 04:33N 35°26' E 139°41'1 1.4
2014-Nov-12 03:33N 35°26' E 139°43'  

Dump ship's entire track history